Stringtown, Iowa
Current Conditions -  °F | °C
As of 10:15 PM on Wednesday 26 Nov 2014 (Local Time) from KCSQ Reporting Station
Overcast Overcast  
Wind Chill: 10°   Ceiling: 700
Heat Index: 23°   Visibility: 7mi
Dew Point: 21°   Wind: 16mph
Humidity: 93%   Direction: 340°NNW
Pressure: 30.35"   Gusts: 24mph
Location:  40.8856°N, 94.5654°W
Report Text: KCSQ 270415Z AUTO 34014G21KT 7SM OVC007 M05/M06 A3035 RMK AO2
Loading
Personal Weather Stations






























Interactive Weather Map New forecast layout! Learn more

10-Day Weather Forecast

Advertisements
Track Severe Weather on mobile